sensor_id;sensor_type;location;lat;lon;timestamp;pressure;altitude;pressure_sealevel;temperature;humidity
11676;BME280;5894;42.768;23.404;2022-08-19T00:01:44;95356.91;;;22.12;93.00
11676;BME280;5894;42.768;23.404;2022-08-19T00:04:13;95354.19;;;22.02;94.70
11676;BME280;5894;42.768;23.404;2022-08-19T00:06:42;95372.63;;;22.03;96.63
11676;BME280;5894;42.768;23.404;2022-08-19T00:09:11;95378.78;;;22.07;97.52
11676;BME280;5894;42.768;23.404;2022-08-19T00:11:40;95378.38;;;21.98;97.16
11676;BME280;5894;42.768;23.404;2022-08-19T00:14:08;95379.50;;;21.97;97.68
11676;BME280;5894;42.768;23.404;2022-08-19T00:16:36;95380.25;;;21.94;98.20
11676;BME280;5894;42.768;23.404;2022-08-19T00:19:03;95367.94;;;21.86;97.42
11676;BME280;5894;42.768;23.404;2022-08-19T00:21:30;95382.59;;;22.03;95.40
11676;BME280;5894;42.768;23.404;2022-08-19T00:23:57;95381.06;;;21.98;95.15
11676;BME280;5894;42.768;23.404;2022-08-19T00:26:27;95370.63;;;21.93;95.66
11676;BME280;5894;42.768;23.404;2022-08-19T00:28:55;95381.75;;;21.88;96.79
11676;BME280;5894;42.768;23.404;2022-08-19T00:31:22;95344.88;;;21.67;96.05
11676;BME280;5894;42.768;23.404;2022-08-19T00:33:50;95375.97;;;21.82;96.42
11676;BME280;5894;42.768;23.404;2022-08-19T00:36:17;95367.53;;;21.80;96.90
11676;BME280;5894;42.768;23.404;2022-08-19T00:38:44;95374.06;;;21.83;97.23
11676;BME280;5894;42.768;23.404;2022-08-19T00:41:13;95327.97;;;21.63;96.23
11676;BME280;5894;42.768;23.404;2022-08-19T00:43:40;95370.22;;;21.84;95.54
11676;BME280;5894;42.768;23.404;2022-08-19T00:46:09;95355.94;;;21.62;98.37
11676;BME280;5894;42.768;23.404;2022-08-19T00:48:36;95365.97;;;21.76;97.72
11676;BME280;5894;42.768;23.404;2022-08-19T00:51:03;95368.25;;;21.70;97.80
11676;BME280;5894;42.768;23.404;2022-08-19T00:53:31;95367.09;;;21.68;98.75
11676;BME280;5894;42.768;23.404;2022-08-19T00:56:01;95350.56;;;21.55;97.47
11676;BME280;5894;42.768;23.404;2022-08-19T00:58:33;95362.50;;;21.68;96.81
11676;BME280;5894;42.768;23.404;2022-08-19T01:01:02;95365.91;;;21.61;98.42
11676;BME280;5894;42.768;23.404;2022-08-19T01:03:30;95356.31;;;21.57;97.12
11676;BME280;5894;42.768;23.404;2022-08-19T01:05:57;95364.75;;;21.55;98.21
11676;BME280;5894;42.768;23.404;2022-08-19T01:08:25;95368.59;;;21.58;98.19
11676;BME280;5894;42.768;23.404;2022-08-19T01:10:54;95363.16;;;21.51;98.79
11676;BME280;5894;42.768;23.404;2022-08-19T01:13:27;95353.59;;;21.46;99.54
11676;BME280;5894;42.768;23.404;2022-08-19T01:15:56;95359.72;;;21.50;99.20
11676;BME280;5894;42.768;23.404;2022-08-19T01:18:24;95334.28;;;21.23;100.00
11676;BME280;5894;42.768;23.404;2022-08-19T01:20:56;95365.47;;;21.45;100.00
11676;BME280;5894;42.768;23.404;2022-08-19T01:23:25;95357.38;;;21.38;100.00
11676;BME280;5894;42.768;23.404;2022-08-19T01:26:09;95365.44;;;21.38;100.00
11676;BME280;5894;42.768;23.404;2022-08-19T01:28:37;95362.31;;;21.33;100.00
11676;BME280;5894;42.768;23.404;2022-08-19T01:31:05;95365.38;;;21.28;100.00
11676;BME280;5894;42.768;23.404;2022-08-19T01:33:33;95356.47;;;21.20;100.00
11676;BME280;5894;42.768;23.404;2022-08-19T01:36:05;95358.44;;;21.23;100.00
11676;BME280;5894;42.768;23.404;2022-08-19T01:38:36;95334.56;;;21.07;100.00
11676;BME280;5894;42.768;23.404;2022-08-19T01:41:03;95365.66;;;21.19;100.00
11676;BME280;5894;42.768;23.404;2022-08-19T01:43:31;95369.47;;;21.14;100.00
11676;BME280;5894;42.768;23.404;2022-08-19T01:45:58;95367.19;;;21.16;100.00
11676;BME280;5894;42.768;23.404;2022-08-19T01:48:26;95371.78;;;21.16;100.00
11676;BME280;5894;42.768;23.404;2022-08-19T01:50:54;95374.91;;;21.25;100.00
11676;BME280;5894;42.768;23.404;2022-08-19T01:53:21;95379.16;;;21.26;100.00
11676;BME280;5894;42.768;23.404;2022-08-19T01:55:49;95383.19;;;21.09;100.00
11676;BME280;5894;42.768;23.404;2022-08-19T01:58:20;95382.03;;;21.03;100.00
11676;BME280;5894;42.768;23.404;2022-08-19T02:00:49;95369.69;;;20.92;100.00
11676;BME280;5894;42.768;23.404;2022-08-19T02:03:16;95378.13;;;20.94;100.00
11676;BME280;5894;42.768;23.404;2022-08-19T02:05:43;95373.91;;;20.93;100.00
11676;BME280;5894;42.768;23.404;2022-08-19T02:08:11;95380.75;;;20.90;100.00
11676;BME280;5894;42.768;23.404;2022-08-19T02:10:40;95385.72;;;20.84;100.00
11676;BME280;5894;42.768;23.404;2022-08-19T02:13:09;95375.00;;;20.84;100.00
11676;BME280;5894;42.768;23.404;2022-08-19T02:15:36;95382.63;;;20.82;100.00
11676;BME280;5894;42.768;23.404;2022-08-19T02:18:03;95383.75;;;20.81;100.00
11676;BME280;5894;42.768;23.404;2022-08-19T02:20:30;95387.25;;;20.85;100.00
11676;BME280;5894;42.768;23.404;2022-08-19T02:22:57;95387.56;;;20.80;100.00
11676;BME280;5894;42.768;23.404;2022-08-19T02:25:24;95384.53;;;20.82;100.00
11676;BME280;5894;42.768;23.404;2022-08-19T02:27:51;95387.66;;;20.91;100.00
11676;BME280;5894;42.768;23.404;2022-08-19T02:30:19;95380.03;;;20.93;100.00
11676;BME280;5894;42.768;23.404;2022-08-19T02:32:46;95345.66;;;20.58;100.00
11676;BME280;5894;42.768;23.404;2022-08-19T02:35:14;95382.53;;;20.72;100.00
11676;BME280;5894;42.768;23.404;2022-08-19T02:37:41;95381.44;;;20.80;100.00
11676;BME280;5894;42.768;23.404;2022-08-19T02:40:26;95361.91;;;20.76;100.00
11676;BME280;5894;42.768;23.404;2022-08-19T02:42:54;95375.00;;;20.84;100.00
11676;BME280;5894;42.768;23.404;2022-08-19T02:45:22;95380.66;;;20.76;100.00
11676;BME280;5894;42.768;23.404;2022-08-19T02:47:49;95376.03;;;20.73;100.00
11676;BME280;5894;42.768;23.404;2022-08-19T02:50:16;95374.41;;;20.61;100.00
11676;BME280;5894;42.768;23.404;2022-08-19T02:52:43;95373.13;;;20.48;100.00
11676;BME280;5894;42.768;23.404;2022-08-19T02:55:10;95373.13;;;20.48;100.00
11676;BME280;5894;42.768;23.404;2022-08-19T02:57:37;95386.50;;;20.44;100.00
11676;BME280;5894;42.768;23.404;2022-08-19T03:00:07;95389.97;;;20.45;100.00
11676;BME280;5894;42.768;23.404;2022-08-19T03:02:38;95382.25;;;20.40;100.00
11676;BME280;5894;42.768;23.404;2022-08-19T03:05:06;95381.84;;;20.38;100.00
11676;BME280;5894;42.768;23.404;2022-08-19T03:07:35;95379.44;;;20.29;100.00
11676;BME280;5894;42.768;23.404;2022-08-19T03:10:02;95385.59;;;20.33;100.00
11676;BME280;5894;42.768;23.404;2022-08-19T03:12:30;95390.19;;;20.33;100.00
11676;BME280;5894;42.768;23.404;2022-08-19T03:14:57;95357.84;;;20.11;100.00
11676;BME280;5894;42.768;23.404;2022-08-19T03:17:23;95377.09;;;20.24;100.00
11676;BME280;5894;42.768;23.404;2022-08-19T03:19:51;95375.94;;;20.25;100.00
11676;BME280;5894;42.768;23.404;2022-08-19T03:22:19;95387.81;;;20.28;100.00
11676;BME280;5894;42.768;23.404;2022-08-19T03:24:45;95378.63;;;20.25;100.00
11676;BME280;5894;42.768;23.404;2022-08-19T03:27:12;95372.09;;;20.23;100.00
11676;BME280;5894;42.768;23.404;2022-08-19T03:29:39;95384.34;;;20.24;100.00
11676;BME280;5894;42.768;23.404;2022-08-19T03:32:06;95374.38;;;20.21;100.00
11676;BME280;5894;42.768;23.404;2022-08-19T03:34:34;95385.84;;;20.21;100.00
11676;BME280;5894;42.768;23.404;2022-08-19T03:37:06;95391.16;;;20.14;100.00
11676;BME280;5894;42.768;23.404;2022-08-19T03:39:33;95395.31;;;20.11;100.00
11676;BME280;5894;42.768;23.404;2022-08-19T03:42:00;95397.63;;;20.13;100.00
11676;BME280;5894;42.768;23.404;2022-08-19T03:44:28;95401.09;;;20.13;100.00
11676;BME280;5894;42.768;23.404;2022-08-19T03:46:57;95408.72;;;20.15;100.00
11676;BME280;5894;42.768;23.404;2022-08-19T03:49:26;95419.44;;;20.15;100.00
11676;BME280;5894;42.768;23.404;2022-08-19T03:51:54;95418.28;;;20.16;100.00
11676;BME280;5894;42.768;23.404;2022-08-19T03:54:24;95421.44;;;20.22;100.00
11676;BME280;5894;42.768;23.404;2022-08-19T03:56:52;95420.63;;;20.17;100.00
11676;BME280;5894;42.768;23.404;2022-08-19T03:59:21;95415.13;;;20.03;100.00
11676;BME280;5894;42.768;23.404;2022-08-19T04:01:51;95422.09;;;20.11;100.00
11676;BME280;5894;42.768;23.404;2022-08-19T04:04:18;95420.50;;;20.07;100.00
11676;BME280;5894;42.768;23.404;2022-08-19T04:06:47;95429.22;;;20.00;100.00
11676;BME280;5894;42.768;23.404;2022-08-19T04:09:14;95431.72;;;19.86;100.00
11676;BME280;5894;42.768;23.404;2022-08-19T04:11:44;95432.75;;;19.78;100.00
11676;BME280;5894;42.768;23.404;2022-08-19T04:14:14;95430.44;;;19.76;100.00
11676;BME280;5894;42.768;23.404;2022-08-19T04:16:41;95433.59;;;19.82;100.00
11676;BME280;5894;42.768;23.404;2022-08-19T04:19:10;95435.22;;;19.90;100.00
11676;BME280;5894;42.768;23.404;2022-08-19T04:21:37;95430.63;;;19.91;100.00
11676;BME280;5894;42.768;23.404;2022-08-19T04:24:04;95432.13;;;19.88;100.00
11676;BME280;5894;42.768;23.404;2022-08-19T04:26:33;95439.38;;;19.88;100.00
11676;BME280;5894;42.768;23.404;2022-08-19T04:29:05;95437.53;;;19.92;100.00
11676;BME280;5894;42.768;23.404;2022-08-19T04:31:33;95435.63;;;19.92;100.00
11676;BME280;5894;42.768;23.404;2022-08-19T04:34:03;95398.69;;;19.75;100.00
11676;BME280;5894;42.768;23.404;2022-08-19T04:36:33;95431.44;;;19.95;100.00
11676;BME280;5894;42.768;23.404;2022-08-19T04:39:02;95432.19;;;19.92;100.00
11676;BME280;5894;42.768;23.404;2022-08-19T04:41:30;95427.97;;;19.91;100.00
11676;BME280;5894;42.768;23.404;2022-08-19T04:44:15;95432.63;;;19.97;100.00
11676;BME280;5894;42.768;23.404;2022-08-19T04:46:44;95429.94;;;19.97;100.00
11676;BME280;5894;42.768;23.404;2022-08-19T04:49:12;95422.31;;;19.99;100.00
11676;BME280;5894;42.768;23.404;2022-08-19T04:51:40;95424.31;;;20.06;100.00
11676;BME280;5894;42.768;23.404;2022-08-19T04:54:07;95427.81;;;20.10;100.00
11676;BME280;5894;42.768;23.404;2022-08-19T04:56:34;95433.59;;;20.15;100.00
11676;BME280;5894;42.768;23.404;2022-08-19T04:59:01;95434.41;;;20.20;100.00
11676;BME280;5894;42.768;23.404;2022-08-19T05:01:32;95437.53;;;20.25;100.00
11676;BME280;5894;42.768;23.404;2022-08-19T05:04:02;95439.88;;;20.30;100.00
11676;BME280;5894;42.768;23.404;2022-08-19T05:06:30;95440.28;;;20.32;100.00
11676;BME280;5894;42.768;23.404;2022-08-19T05:09:00;95440.34;;;20.36;100.00
11676;BME280;5894;42.768;23.404;2022-08-19T05:11:28;95445.81;;;20.43;100.00
11676;BME280;5894;42.768;23.404;2022-08-19T05:13:56;95448.94;;;20.52;100.00
11676;BME280;5894;42.768;23.404;2022-08-19T05:16:24;95441.34;;;20.58;100.00
11676;BME280;5894;42.768;23.404;2022-08-19T05:18:53;95448.28;;;20.62;100.00
11676;BME280;5894;42.768;23.404;2022-08-19T05:21:39;95444.53;;;20.70;100.00
11676;BME280;5894;42.768;23.404;2022-08-19T05:24:24;95450.41;;;20.83;100.00
11676;BME280;5894;42.768;23.404;2022-08-19T05:26:52;95450.44;;;20.90;100.00
11676;BME280;5894;42.768;23.404;2022-08-19T05:29:23;95442.50;;;21.01;100.00
11676;BME280;5894;42.768;23.404;2022-08-19T05:31:50;95441.44;;;21.12;100.00
11676;BME280;5894;42.768;23.404;2022-08-19T05:34:20;95446.94;;;21.23;100.00
11676;BME280;5894;42.768;23.404;2022-08-19T05:36:49;95444.31;;;21.34;100.00
11676;BME280;5894;42.768;23.404;2022-08-19T05:39:18;95447.84;;;21.45;100.00
11676;BME280;5894;42.768;23.404;2022-08-19T05:41:48;95442.16;;;21.53;100.00
11676;BME280;5894;42.768;23.404;2022-08-19T05:44:17;95445.28;;;21.63;100.00
11676;BME280;5894;42.768;23.404;2022-08-19T05:46:45;95435.69;;;21.58;100.00
11676;BME280;5894;42.768;23.404;2022-08-19T05:49:13;95451.19;;;21.89;100.00
11676;BME280;5894;42.768;23.404;2022-08-19T05:51:42;95455.44;;;21.97;100.00
11676;BME280;5894;42.768;23.404;2022-08-19T05:54:10;95448.22;;;22.12;100.00
11676;BME280;5894;42.768;23.404;2022-08-19T05:56:39;95437.53;;;22.19;100.00
11676;BME280;5894;42.768;23.404;2022-08-19T05:59:08;95408.69;;;22.06;100.00
11676;BME280;5894;42.768;23.404;2022-08-19T06:01:38;95437.56;;;22.37;100.00
11676;BME280;5894;42.768;23.404;2022-08-19T06:04:05;95428.34;;;22.27;100.00
11676;BME280;5894;42.768;23.404;2022-08-19T06:06:32;95404.94;;;22.28;99.49
11676;BME280;5894;42.768;23.404;2022-08-19T06:09:02;95447.25;;;22.66;98.19
11676;BME280;5894;42.768;23.404;2022-08-19T06:11:33;95448.78;;;22.75;97.73
11676;BME280;5894;42.768;23.404;2022-08-19T06:14:03;95456.53;;;22.83;97.35
11676;BME280;5894;42.768;23.404;2022-08-19T06:16:33;95451.16;;;22.90;98.21
11676;BME280;5894;42.768;23.404;2022-08-19T06:19:03;95458.06;;;22.95;97.68
11676;BME280;5894;42.768;23.404;2022-08-19T06:21:32;95455.78;;;23.00;97.94
11676;BME280;5894;42.768;23.404;2022-08-19T06:24:05;95457.72;;;23.03;98.33
11676;BME280;5894;42.768;23.404;2022-08-19T06:26:34;95456.56;;;23.04;98.07
11676;BME280;5894;42.768;23.404;2022-08-19T06:29:02;95455.03;;;23.14;98.70
11676;BME280;5894;42.768;23.404;2022-08-19T06:31:30;95456.53;;;23.19;98.01
11676;BME280;5894;42.768;23.404;2022-08-19T06:33:59;95461.56;;;23.24;97.62
11676;BME280;5894;42.768;23.404;2022-08-19T06:36:29;95458.84;;;23.31;97.18
11676;BME280;5894;42.768;23.404;2022-08-19T06:39:00;95451.16;;;23.33;96.50
11676;BME280;5894;42.768;23.404;2022-08-19T06:41:29;95455.75;;;23.39;95.65
11676;BME280;5894;42.768;23.404;2022-08-19T06:43:57;95457.69;;;23.42;93.43
11676;BME280;5894;42.768;23.404;2022-08-19T06:46:24;95458.84;;;23.45;91.93
11676;BME280;5894;42.768;23.404;2022-08-19T06:48:53;95456.94;;;23.46;91.36
11676;BME280;5894;42.768;23.404;2022-08-19T06:51:22;95456.94;;;23.53;91.07
11676;BME280;5894;42.768;23.404;2022-08-19T06:53:51;95460.75;;;23.59;91.21
11676;BME280;5894;42.768;23.404;2022-08-19T06:56:19;95453.47;;;23.66;91.08
11676;BME280;5894;42.768;23.404;2022-08-19T06:58:48;95456.13;;;23.73;90.55
11676;BME280;5894;42.768;23.404;2022-08-19T07:01:17;95462.25;;;23.81;88.88
11676;BME280;5894;42.768;23.404;2022-08-19T07:03:43;95460.69;;;23.91;88.59
11676;BME280;5894;42.768;23.404;2022-08-19T07:06:13;95459.16;;;23.93;89.23
11676;BME280;5894;42.768;23.404;2022-08-19T07:08:43;95462.59;;;24.04;87.83
11676;BME280;5894;42.768;23.404;2022-08-19T07:11:13;95466.78;;;24.12;86.27
11676;BME280;5894;42.768;23.404;2022-08-19T07:13:43;95465.25;;;24.22;84.47
11676;BME280;5894;42.768;23.404;2022-08-19T07:16:13;95461.34;;;24.30;85.20
11676;BME280;5894;42.768;23.404;2022-08-19T07:18:41;95469.81;;;24.39;83.75
11676;BME280;5894;42.768;23.404;2022-08-19T07:21:12;95458.22;;;24.46;82.13
11676;BME280;5894;42.768;23.404;2022-08-19T07:23:39;95458.94;;;24.54;81.43
11676;BME280;5894;42.768;23.404;2022-08-19T07:26:07;95457.34;;;24.63;79.46
11676;BME280;5894;42.768;23.404;2022-08-19T07:28:34;95457.72;;;24.65;78.71
11676;BME280;5894;42.768;23.404;2022-08-19T07:31:05;95461.50;;;24.78;78.08
11676;BME280;5894;42.768;23.404;2022-08-19T07:33:34;95456.81;;;24.90;79.74
11676;BME280;5894;42.768;23.404;2022-08-19T07:36:03;95460.56;;;25.03;75.76
11676;BME280;5894;42.768;23.404;2022-08-19T07:38:31;95448.94;;;25.13;74.56
11676;BME280;5894;42.768;23.404;2022-08-19T07:40:58;95458.88;;;25.27;74.42
11676;BME280;5894;42.768;23.404;2022-08-19T07:43:24;95458.38;;;25.39;75.41
11676;BME280;5894;42.768;23.404;2022-08-19T07:45:55;95456.72;;;25.52;73.08
11676;BME280;5894;42.768;23.404;2022-08-19T07:48:23;95452.75;;;25.67;74.05
11676;BME280;5894;42.768;23.404;2022-08-19T07:50:53;95456.44;;;25.84;74.65
11676;BME280;5894;42.768;23.404;2022-08-19T07:53:21;95450.09;;;25.98;70.35
11676;BME280;5894;42.768;23.404;2022-08-19T07:55:48;95460.31;;;26.17;70.21
11676;BME280;5894;42.768;23.404;2022-08-19T07:58:17;95457.44;;;26.35;65.87
11676;BME280;5894;42.768;23.404;2022-08-19T08:00:46;95447.59;;;26.48;68.94
11676;BME280;5894;42.768;23.404;2022-08-19T08:03:14;95402.59;;;26.34;66.03
11676;BME280;5894;42.768;23.404;2022-08-19T08:05:42;95450.88;;;26.89;66.12
11676;BME280;5894;42.768;23.404;2022-08-19T08:08:28;95445.13;;;27.14;65.02
11676;BME280;5894;42.768;23.404;2022-08-19T08:11:14;95454.84;;;27.35;64.01
11676;BME280;5894;42.768;23.404;2022-08-19T08:13:41;95446.75;;;27.58;63.94
11676;BME280;5894;42.768;23.404;2022-08-19T08:16:09;95391.16;;;27.50;62.90
11676;BME280;5894;42.768;23.404;2022-08-19T08:18:42;95441.16;;;28.08;63.99
11676;BME280;5894;42.768;23.404;2022-08-19T08:21:10;95436.09;;;28.30;64.10
11676;BME280;5894;42.768;23.404;2022-08-19T08:23:38;95439.56;;;28.51;62.95
11676;BME280;5894;42.768;23.404;2022-08-19T08:26:05;95436.44;;;28.68;62.51
11676;BME280;5894;42.768;23.404;2022-08-19T08:28:32;95411.78;;;28.63;61.35
11676;BME280;5894;42.768;23.404;2022-08-19T08:30:59;95425.00;;;28.77;60.64
11676;BME280;5894;42.768;23.404;2022-08-19T08:33:27;95390.31;;;28.68;58.70
11676;BME280;5894;42.768;23.404;2022-08-19T08:35:55;95427.13;;;29.05;59.58
11676;BME280;5894;42.768;23.404;2022-08-19T08:38:22;95419.63;;;29.09;57.35
11676;BME280;5894;42.768;23.404;2022-08-19T08:40:56;95426.59;;;29.27;56.47
11676;BME280;5894;42.768;23.404;2022-08-19T08:43:34;95431.59;;;29.28;54.54
11676;BME280;5894;42.768;23.404;2022-08-19T08:46:09;95424.81;;;29.36;53.10
11676;BME280;5894;42.768;23.404;2022-08-19T08:48:46;95419.00;;;29.38;52.91
11676;BME280;5894;42.768;23.404;2022-08-19T08:51:20;95421.94;;;29.43;52.75
11676;BME280;5894;42.768;23.404;2022-08-19T08:53:51;95414.03;;;29.49;52.01
11676;BME280;5894;42.768;23.404;2022-08-19T08:56:20;95412.31;;;29.55;51.94
11676;BME280;5894;42.768;23.404;2022-08-19T08:58:51;95407.88;;;29.61;54.23
11676;BME280;5894;42.768;23.404;2022-08-19T09:01:22;95399.50;;;29.55;51.77
11676;BME280;5894;42.768;23.404;2022-08-19T09:03:57;95403.06;;;29.69;49.97
11676;BME280;5894;42.768;23.404;2022-08-19T09:06:31;95387.69;;;29.62;49.09
11676;BME280;5894;42.768;23.404;2022-08-19T09:09:02;95393.59;;;29.73;52.31
11676;BME280;5894;42.768;23.404;2022-08-19T09:11:44;95384.16;;;29.78;50.39
11676;BME280;5894;42.768;23.404;2022-08-19T09:14:23;95392.13;;;29.85;49.21
11676;BME280;5894;42.768;23.404;2022-08-19T09:16:54;95393.88;;;29.91;48.50
11676;BME280;5894;42.768;23.404;2022-08-19T09:19:21;95381.38;;;29.94;47.22
11676;BME280;5894;42.768;23.404;2022-08-19T09:21:47;95389.81;;;30.00;48.18
11676;BME280;5894;42.768;23.404;2022-08-19T09:24:16;95377.88;;;29.93;45.68
11676;BME280;5894;42.768;23.404;2022-08-19T09:26:44;95377.72;;;30.01;49.28
11676;BME280;5894;42.768;23.404;2022-08-19T09:29:11;95376.22;;;30.00;47.90
11676;BME280;5894;42.768;23.404;2022-08-19T09:31:38;95375.31;;;30.03;48.26
11676;BME280;5894;42.768;23.404;2022-08-19T09:34:05;95361.22;;;30.08;46.00
11676;BME280;5894;42.768;23.404;2022-08-19T09:36:32;95367.19;;;30.15;46.13
11676;BME280;5894;42.768;23.404;2022-08-19T09:39:02;95371.44;;;30.16;48.40
11676;BME280;5894;42.768;23.404;2022-08-19T09:41:30;95364.72;;;30.21;47.20
11676;BME280;5894;42.768;23.404;2022-08-19T09:43:58;95356.09;;;30.22;48.02
11676;BME280;5894;42.768;23.404;2022-08-19T09:46:27;95341.97;;;30.15;47.75
11676;BME280;5894;42.768;23.404;2022-08-19T09:48:57;95350.56;;;30.26;46.40
11676;BME280;5894;42.768;23.404;2022-08-19T09:51:26;95358.63;;;30.29;45.82
11676;BME280;5894;42.768;23.404;2022-08-19T09:53:53;95354.81;;;30.27;45.19
11676;BME280;5894;42.768;23.404;2022-08-19T09:56:22;95346.09;;;30.32;43.75
11676;BME280;5894;42.768;23.404;2022-08-19T09:58:49;95336.66;;;30.37;43.50
11676;BME280;5894;42.768;23.404;2022-08-19T10:01:20;95338.38;;;30.43;42.74
11676;BME280;5894;42.768;23.404;2022-08-19T10:03:51;95339.03;;;30.47;42.74
11676;BME280;5894;42.768;23.404;2022-08-19T10:06:19;95333.59;;;30.47;43.26
11676;BME280;5894;42.768;23.404;2022-08-19T10:08:47;95334.59;;;30.41;42.42
11676;BME280;5894;42.768;23.404;2022-08-19T10:11:14;95316.84;;;30.49;40.82
11676;BME280;5894;42.768;23.404;2022-08-19T10:13:43;95332.97;;;30.56;42.60
11676;BME280;5894;42.768;23.404;2022-08-19T10:16:12;95288.97;;;30.32;42.55
11676;BME280;5894;42.768;23.404;2022-08-19T10:18:40;95323.50;;;30.60;43.26
11676;BME280;5894;42.768;23.404;2022-08-19T10:21:11;95326.09;;;30.64;43.03
11676;BME280;5894;42.768;23.404;2022-08-19T10:23:42;95323.59;;;30.70;41.25
11676;BME280;5894;42.768;23.404;2022-08-19T10:26:11;95311.53;;;30.71;40.92
11676;BME280;5894;42.768;23.404;2022-08-19T10:28:40;95313.47;;;30.70;41.98
11676;BME280;5894;42.768;23.404;2022-08-19T10:31:09;95308.88;;;30.80;41.75
11676;BME280;5894;42.768;23.404;2022-08-19T10:33:38;95308.66;;;30.87;42.07
11676;BME280;5894;42.768;23.404;2022-08-19T10:36:09;95300.03;;;30.88;42.59
11676;BME280;5894;42.768;23.404;2022-08-19T10:38:37;95307.53;;;30.97;42.22
11676;BME280;5894;42.768;23.404;2022-08-19T10:41:09;95305.78;;;31.03;41.39
11676;BME280;5894;42.768;23.404;2022-08-19T10:43:36;95303.19;;;31.12;40.81
11676;BME280;5894;42.768;23.404;2022-08-19T10:46:05;95304.13;;;31.18;41.72
11676;BME280;5894;42.768;23.404;2022-08-19T10:48:32;95305.88;;;31.25;41.13
11676;BME280;5894;42.768;23.404;2022-08-19T10:50:59;95302.13;;;31.31;40.69
11676;BME280;5894;42.768;23.404;2022-08-19T10:53:45;95302.31;;;31.37;40.76
11676;BME280;5894;42.768;23.404;2022-08-19T10:56:12;95295.09;;;31.43;40.81
11676;BME280;5894;42.768;23.404;2022-08-19T10:58:57;95290.91;;;31.51;38.29
11676;BME280;5894;42.768;23.404;2022-08-19T11:01:24;95286.28;;;31.61;37.12
11676;BME280;5894;42.768;23.404;2022-08-19T11:03:51;95286.19;;;31.64;37.71
11676;BME280;5894;42.768;23.404;2022-08-19T11:06:18;95291.06;;;31.69;38.66
11676;BME280;5894;42.768;23.404;2022-08-19T11:08:47;95285.50;;;31.73;40.73
11676;BME280;5894;42.768;23.404;2022-08-19T11:11:14;95285.03;;;31.75;40.88
11676;BME280;5894;42.768;23.404;2022-08-19T11:13:42;95291.44;;;31.81;40.98
11676;BME280;5894;42.768;23.404;2022-08-19T11:16:12;95286.63;;;31.85;40.96
11676;BME280;5894;42.768;23.404;2022-08-19T11:18:42;95255.19;;;31.71;40.42
11676;BME280;5894;42.768;23.404;2022-08-19T11:21:12;95276.19;;;31.92;40.08
11676;BME280;5894;42.768;23.404;2022-08-19T11:23:39;95273.63;;;31.98;38.90
11676;BME280;5894;42.768;23.404;2022-08-19T11:26:07;95281.28;;;32.12;39.83
11676;BME280;5894;42.768;23.404;2022-08-19T11:28:34;95267.66;;;32.12;37.63
11676;BME280;5894;42.768;23.404;2022-08-19T11:31:01;95263.72;;;32.13;39.35
11676;BME280;5894;42.768;23.404;2022-08-19T11:33:29;95269.34;;;32.19;40.68
11676;BME280;5894;42.768;23.404;2022-08-19T11:35:57;95261.22;;;32.28;38.35
11676;BME280;5894;42.768;23.404;2022-08-19T11:38:26;95261.41;;;32.33;37.60
11676;BME280;5894;42.768;23.404;2022-08-19T11:40:57;95257.47;;;32.34;38.87
11676;BME280;5894;42.768;23.404;2022-08-19T11:43:25;95240.63;;;32.36;39.18
11676;BME280;5894;42.768;23.404;2022-08-19T11:45:54;95221.06;;;32.28;36.08
11676;BME280;5894;42.768;23.404;2022-08-19T11:48:21;95234.13;;;32.42;39.28
11676;BME280;5894;42.768;23.404;2022-08-19T11:50:48;95241.88;;;32.53;38.59
11676;BME280;5894;42.768;23.404;2022-08-19T11:53:15;95245.06;;;32.61;38.15
11676;BME280;5894;42.768;23.404;2022-08-19T11:55:43;95201.53;;;32.39;38.33
11676;BME280;5894;42.768;23.404;2022-08-19T11:58:10;95242.84;;;32.68;36.51
11676;BME280;5894;42.768;23.404;2022-08-19T12:00:39;95238.28;;;32.65;37.50
11676;BME280;5894;42.768;23.404;2022-08-19T12:03:07;95238.16;;;32.78;38.72
11676;BME280;5894;42.768;23.404;2022-08-19T12:05:36;95236.34;;;32.84;38.34
11676;BME280;5894;42.768;23.404;2022-08-19T12:08:03;95232.25;;;32.89;38.26
11676;BME280;5894;42.768;23.404;2022-08-19T12:10:30;95223.13;;;32.92;38.64
11676;BME280;5894;42.768;23.404;2022-08-19T12:12:57;95222.56;;;32.97;37.50
11676;BME280;5894;42.768;23.404;2022-08-19T12:15:24;95225.59;;;32.99;38.11
11676;BME280;5894;42.768;23.404;2022-08-19T12:17:54;95220.88;;;33.08;38.05
11676;BME280;5894;42.768;23.404;2022-08-19T12:20:23;95220.44;;;33.19;37.67
11676;BME280;5894;42.768;23.404;2022-08-19T12:22:51;95212.38;;;33.25;39.23
11676;BME280;5894;42.768;23.404;2022-08-19T12:25:20;95182.78;;;33.14;38.61
11676;BME280;5894;42.768;23.404;2022-08-19T12:27:47;95208.44;;;33.35;37.38
11676;BME280;5894;42.768;23.404;2022-08-19T12:30:15;95208.72;;;33.46;38.17
11676;BME280;5894;42.768;23.404;2022-08-19T12:32:42;95200.22;;;33.53;35.56
11676;BME280;5894;42.768;23.404;2022-08-19T12:35:10;95204.28;;;33.58;35.71
11676;BME280;5894;42.768;23.404;2022-08-19T12:37:38;95204.09;;;33.70;36.46
11676;BME280;5894;42.768;23.404;2022-08-19T12:40:10;95203.00;;;33.86;37.26
11676;BME280;5894;42.768;23.404;2022-08-19T12:42:38;95190.34;;;33.98;36.70
11676;BME280;5894;42.768;23.404;2022-08-19T12:45:09;95186.53;;;34.04;36.15
11676;BME280;5894;42.768;23.404;2022-08-19T12:47:36;95186.34;;;34.08;36.06
11676;BME280;5894;42.768;23.404;2022-08-19T12:50:04;95184.97;;;34.12;36.13
11676;BME280;5894;42.768;23.404;2022-08-19T12:52:36;95170.38;;;34.15;36.50
11676;BME280;5894;42.768;23.404;2022-08-19T12:55:05;95191.88;;;34.32;34.01
11676;BME280;5894;42.768;23.404;2022-08-19T12:57:32;95184.06;;;34.39;33.86
11676;BME280;5894;42.768;23.404;2022-08-19T13:00:05;95188.28;;;34.49;32.90
11676;BME280;5894;42.768;23.404;2022-08-19T13:02:35;95184.16;;;34.54;32.75
11676;BME280;5894;42.768;23.404;2022-08-19T13:05:02;95175.84;;;34.63;34.33
11676;BME280;5894;42.768;23.404;2022-08-19T13:07:31;95156.28;;;34.55;34.73